MROC

Juan Santamaría International Airport

Airport
ICAO code
MROC
IATA Code
SJO
Summary
ICAO Region
CARSAM
ICAO Territory
Location

Alajuela, Alajuela Province

Serving
San José
Elevation
3021 ft
Coordinates
9° 59' 37" N , 84° 12' 32" W
KCC
Metar
MROC 230100Z 09011KT 9999 FEW045 21/15 A2998 NOSIG

Juan Santamaría International Airport (IATA: SJO) is located in Alajuela Province, about 20 km from downtown San José, Costa Rica.

Climatology

Tropical savannah climate (Köppen climate classification Aw)

Runways

Designator Length Width Surface Rops
7/25 3012 46 ASP Yes/Yes

Airport map

Aerial View

SKYbrary Partners:

Safety knowledge contributed by: